KAFF/AFF METAR and TAF weather

Enter ICAO airport designator
Station Type Date Time Source
KAFF METAR 2018/12/10 16:58 UTC NOAA

KAFF 101658Z AUTO 00000KT 10SM CLR 04/M17 A3024 RMK AO2 SLP287 T00351168


Station Type Date Time Source
KAFF Decoded METAR 2018/12/10 16:58 UTC NOAA

Air Force Academy, CO, United States (KAFF) 38-58N 104-49W 1999M
Dec 10, 2018 - 11:58 AM EST / 2018.12.10 1658 UTC
Wind: Calm:0
Visibility: 10 mile(s):0
Sky conditions: clear
Temperature: 38.3 F (3.5 C)
Dew Point: 1.8 F (-16.8 C)
Relative Humidity: 20%
Pressure (altimeter): 30.24 in. Hg (1024 hPa)
ob: KAFF 101658Z AUTO 00000KT 10SM CLR 04/M17 A3024 RMK AO2 SLP287 T00351168
cycle: 17

Station Type Date Time Source
KAFF TAF 2018/12/10 12:42 UTC NOAA

TAF TAF COR KAFF 101230Z 1012/1118 35009KT 9999 SKC 510001 520106 QNH3016INS
TEMPO 1016/1018 27012KT
BECMG 1017/1018 16009KT 9999 SKC 510206 QNH3007INS
BECMG 1101/1102 34009KT 9999 SCT180 520206 QNH3004INS
BECMG 1106/1107 36009KT 9999 SKC 520109 QNH3001INS WND 260V090
BECMG 1116/1117 30010G20KT 9999 BKN180 520002 530209 QNH2999INS TX10/1021Z TNM13/1012Z


Example: see airport list